EmailTwitter


Observations de surface / France / LFBD (07510)

Régions: Québec | Canada | États-Unis | Europe | France | UK | Elsewhere
Station
Affichage
Infos & localisation pour LFBD (07510) | Aide pour décoder les METARs

Observations prises le 2017-03-28 à 08H00 UTC à BORDEAUX/MERIGNA, FR (LFBD)

Température: 12.0 Celsius

Point de rosée: 8.0 Celsius

Humidité relative: 77%

Vents: Sud-sud-ouest à 6 km/h ou 3 noeuds.

Pression au niveau moyen de la mer: 102.40 kilopascals.

Observation METAR:

LFBD 280800Z AUTO 20003KT 180V240 CAVOK 12/08 Q1024 NOSIG=